sensor_id;sensor_type;location;lat;lon;timestamp;P1;durP1;ratioP1;P2;durP2;ratioP2
55316;SDS011;41178;48.956;8.130;2022-11-15T00:04:56;12.73;;;10.17;;
55316;SDS011;41178;48.956;8.130;2022-11-15T00:09:58;11.50;;;10.33;;
55316;SDS011;41178;48.956;8.130;2022-11-15T00:15:00;12.10;;;9.30;;
55316;SDS011;41178;48.956;8.130;2022-11-15T00:20:02;12.43;;;9.77;;
55316;SDS011;41178;48.956;8.130;2022-11-15T00:25:04;12.37;;;9.83;;
55316;SDS011;41178;48.956;8.130;2022-11-15T00:30:06;15.40;;;10.53;;
55316;SDS011;41178;48.956;8.130;2022-11-15T00:35:08;12.87;;;9.67;;
55316;SDS011;41178;48.956;8.130;2022-11-15T00:40:11;13.33;;;11.00;;
55316;SDS011;41178;48.956;8.130;2022-11-15T00:45:16;10.37;;;9.27;;
55316;SDS011;41178;48.956;8.130;2022-11-15T00:50:18;13.43;;;9.60;;
55316;SDS011;41178;48.956;8.130;2022-11-15T00:55:20;12.63;;;9.60;;
55316;SDS011;41178;48.956;8.130;2022-11-15T01:00:23;13.67;;;9.90;;
55316;SDS011;41178;48.956;8.130;2022-11-15T01:05:24;14.73;;;9.80;;
55316;SDS011;41178;48.956;8.130;2022-11-15T01:10:26;12.27;;;9.30;;
55316;SDS011;41178;48.956;8.130;2022-11-15T01:15:27;11.03;;;9.47;;
55316;SDS011;41178;48.956;8.130;2022-11-15T01:20:29;15.40;;;9.63;;
55316;SDS011;41178;48.956;8.130;2022-11-15T01:25:31;13.27;;;9.90;;
55316;SDS011;41178;48.956;8.130;2022-11-15T01:30:32;11.87;;;9.30;;
55316;SDS011;41178;48.956;8.130;2022-11-15T01:35:37;11.20;;;9.50;;
55316;SDS011;41178;48.956;8.130;2022-11-15T01:40:40;11.63;;;9.27;;
55316;SDS011;41178;48.956;8.130;2022-11-15T01:45:42;10.57;;;8.53;;
55316;SDS011;41178;48.956;8.130;2022-11-15T01:50:45;12.57;;;9.30;;
55316;SDS011;41178;48.956;8.130;2022-11-15T01:55:46;11.60;;;8.67;;
55316;SDS011;41178;48.956;8.130;2022-11-15T02:00:48;10.77;;;7.83;;
55316;SDS011;41178;48.956;8.130;2022-11-15T02:05:51;11.80;;;8.70;;
55316;SDS011;41178;48.956;8.130;2022-11-15T02:10:54;15.30;;;9.53;;
55316;SDS011;41178;48.956;8.130;2022-11-15T02:16:03;11.73;;;8.80;;
55316;SDS011;41178;48.956;8.130;2022-11-15T02:42:56;16.67;;;8.30;;
55316;SDS011;41178;48.956;8.130;2022-11-15T02:48:23;11.97;;;9.37;;
55316;SDS011;41178;48.956;8.130;2022-11-15T02:53:27;12.93;;;9.37;;
55316;SDS011;41178;48.956;8.130;2022-11-15T03:14:32;12.00;;;10.07;;
55316;SDS011;41178;48.956;8.130;2022-11-15T03:19:43;13.13;;;9.97;;
55316;SDS011;41178;48.956;8.130;2022-11-15T03:24:50;11.23;;;9.57;;
55316;SDS011;41178;48.956;8.130;2022-11-15T03:29:56;11.30;;;9.67;;
55316;SDS011;41178;48.956;8.130;2022-11-15T03:35:06;13.37;;;11.10;;
55316;SDS011;41178;48.956;8.130;2022-11-15T03:40:14;11.97;;;9.23;;
55316;SDS011;41178;48.956;8.130;2022-11-15T03:45:19;13.90;;;10.27;;
55316;SDS011;41178;48.956;8.130;2022-11-15T03:50:25;11.90;;;10.10;;
55316;SDS011;41178;48.956;8.130;2022-11-15T03:55:27;13.37;;;10.27;;
55316;SDS011;41178;48.956;8.130;2022-11-15T04:00:29;11.67;;;8.80;;
55316;SDS011;41178;48.956;8.130;2022-11-15T04:05:31;10.20;;;8.67;;
55316;SDS011;41178;48.956;8.130;2022-11-15T04:10:33;10.10;;;8.30;;
55316;SDS011;41178;48.956;8.130;2022-11-15T04:15:35;11.37;;;9.00;;
55316;SDS011;41178;48.956;8.130;2022-11-15T04:20:37;12.47;;;9.20;;
55316;SDS011;41178;48.956;8.130;2022-11-15T04:26:00;14.70;;;10.23;;
55316;SDS011;41178;48.956;8.130;2022-11-15T04:31:03;12.57;;;10.23;;
55316;SDS011;41178;48.956;8.130;2022-11-15T04:36:05;11.90;;;9.00;;
55316;SDS011;41178;48.956;8.130;2022-11-15T04:41:25;10.57;;;9.43;;
55316;SDS011;41178;48.956;8.130;2022-11-15T04:46:27;10.13;;;8.67;;
55316;SDS011;41178;48.956;8.130;2022-11-15T04:51:29;11.97;;;9.90;;
55316;SDS011;41178;48.956;8.130;2022-11-15T04:56:30;13.93;;;9.57;;
55316;SDS011;41178;48.956;8.130;2022-11-15T05:01:32;9.90;;;8.77;;
55316;SDS011;41178;48.956;8.130;2022-11-15T05:06:34;10.93;;;8.80;;
55316;SDS011;41178;48.956;8.130;2022-11-15T05:11:35;11.80;;;8.77;;
55316;SDS011;41178;48.956;8.130;2022-11-15T05:16:37;10.03;;;8.47;;
55316;SDS011;41178;48.956;8.130;2022-11-15T05:21:40;11.87;;;9.00;;
55316;SDS011;41178;48.956;8.130;2022-11-15T05:26:41;11.83;;;8.20;;
55316;SDS011;41178;48.956;8.130;2022-11-15T05:31:43;10.97;;;8.63;;
55316;SDS011;41178;48.956;8.130;2022-11-15T05:36:45;14.13;;;8.60;;
55316;SDS011;41178;48.956;8.130;2022-11-15T05:41:51;10.73;;;8.53;;
55316;SDS011;41178;48.956;8.130;2022-11-15T05:46:56;14.10;;;12.37;;
55316;SDS011;41178;48.956;8.130;2022-11-15T05:51:58;14.90;;;12.27;;
55316;SDS011;41178;48.956;8.130;2022-11-15T05:57:01;11.50;;;9.30;;
55316;SDS011;41178;48.956;8.130;2022-11-15T06:02:03;9.80;;;7.80;;
55316;SDS011;41178;48.956;8.130;2022-11-15T06:07:04;10.57;;;8.10;;
55316;SDS011;41178;48.956;8.130;2022-11-15T06:12:06;10.67;;;9.40;;
55316;SDS011;41178;48.956;8.130;2022-11-15T06:17:08;29.87;;;22.77;;
55316;SDS011;41178;48.956;8.130;2022-11-15T06:22:11;23.23;;;18.47;;
55316;SDS011;41178;48.956;8.130;2022-11-15T06:27:13;14.53;;;10.17;;
55316;SDS011;41178;48.956;8.130;2022-11-15T06:32:14;11.33;;;8.90;;
55316;SDS011;41178;48.956;8.130;2022-11-15T06:37:16;9.27;;;7.73;;
55316;SDS011;41178;48.956;8.130;2022-11-15T06:42:18;11.60;;;7.97;;
55316;SDS011;41178;48.956;8.130;2022-11-15T06:47:19;9.27;;;8.27;;
55316;SDS011;41178;48.956;8.130;2022-11-15T06:52:21;20.70;;;18.40;;
55316;SDS011;41178;48.956;8.130;2022-11-15T06:57:23;13.00;;;11.37;;
55316;SDS011;41178;48.956;8.130;2022-11-15T07:02:24;11.20;;;9.13;;
55316;SDS011;41178;48.956;8.130;2022-11-15T07:07:26;12.17;;;8.77;;
55316;SDS011;41178;48.956;8.130;2022-11-15T07:12:28;10.57;;;9.27;;
55316;SDS011;41178;48.956;8.130;2022-11-15T07:17:30;12.33;;;9.03;;
55316;SDS011;41178;48.956;8.130;2022-11-15T07:22:31;9.93;;;8.40;;
55316;SDS011;41178;48.956;8.130;2022-11-15T07:27:33;11.93;;;8.70;;
55316;SDS011;41178;48.956;8.130;2022-11-15T07:32:35;12.80;;;9.47;;
55316;SDS011;41178;48.956;8.130;2022-11-15T07:37:37;18.03;;;12.67;;
55316;SDS011;41178;48.956;8.130;2022-11-15T07:42:38;18.37;;;12.37;;
55316;SDS011;41178;48.956;8.130;2022-11-15T07:47:55;12.20;;;10.90;;
55316;SDS011;41178;48.956;8.130;2022-11-15T07:52:58;11.87;;;9.93;;
55316;SDS011;41178;48.956;8.130;2022-11-15T07:58:07;12.30;;;10.57;;
55316;SDS011;41178;48.956;8.130;2022-11-15T08:03:11;15.17;;;9.13;;
55316;SDS011;41178;48.956;8.130;2022-11-15T08:08:15;13.30;;;9.43;;
55316;SDS011;41178;48.956;8.130;2022-11-15T08:13:16;10.77;;;7.77;;
55316;SDS011;41178;48.956;8.130;2022-11-15T08:18:18;10.10;;;9.03;;
55316;SDS011;41178;48.956;8.130;2022-11-15T08:23:20;9.50;;;8.27;;
55316;SDS011;41178;48.956;8.130;2022-11-15T08:28:21;9.63;;;8.20;;
55316;SDS011;41178;48.956;8.130;2022-11-15T08:33:23;13.77;;;8.77;;
55316;SDS011;41178;48.956;8.130;2022-11-15T08:38:26;10.30;;;8.13;;
55316;SDS011;41178;48.956;8.130;2022-11-15T08:43:30;10.77;;;8.20;;
55316;SDS011;41178;48.956;8.130;2022-11-15T08:48:32;13.63;;;8.17;;
55316;SDS011;41178;48.956;8.130;2022-11-15T08:53:34;9.87;;;7.60;;
55316;SDS011;41178;48.956;8.130;2022-11-15T08:58:36;11.87;;;9.57;;
55316;SDS011;41178;48.956;8.130;2022-11-15T09:03:39;11.00;;;8.50;;
55316;SDS011;41178;48.956;8.130;2022-11-15T09:08:41;11.20;;;8.63;;
55316;SDS011;41178;48.956;8.130;2022-11-15T09:13:57;12.30;;;8.00;;
55316;SDS011;41178;48.956;8.130;2022-11-15T09:18:58;9.40;;;7.60;;
55316;SDS011;41178;48.956;8.130;2022-11-15T09:24:00;9.07;;;7.20;;
55316;SDS011;41178;48.956;8.130;2022-11-15T09:29:02;10.10;;;8.13;;
55316;SDS011;41178;48.956;8.130;2022-11-15T09:34:04;10.13;;;8.27;;
55316;SDS011;41178;48.956;8.130;2022-11-15T09:39:05;10.47;;;7.83;;
55316;SDS011;41178;48.956;8.130;2022-11-15T09:49:30;9.03;;;8.10;;
55316;SDS011;41178;48.956;8.130;2022-11-15T09:54:34;11.03;;;9.30;;
55316;SDS011;41178;48.956;8.130;2022-11-15T10:04:57;13.23;;;10.47;;
55316;SDS011;41178;48.956;8.130;2022-11-15T10:10:03;15.33;;;13.20;;
55316;SDS011;41178;48.956;8.130;2022-11-15T10:15:13;18.23;;;16.17;;
55316;SDS011;41178;48.956;8.130;2022-11-15T10:25:24;13.17;;;8.70;;
55316;SDS011;41178;48.956;8.130;2022-11-15T10:30:47;8.47;;;7.30;;
55316;SDS011;41178;48.956;8.130;2022-11-15T10:41:11;10.67;;;6.77;;
55316;SDS011;41178;48.956;8.130;2022-11-15T10:46:21;8.07;;;6.77;;
55316;SDS011;41178;48.956;8.130;2022-11-15T10:51:53;8.30;;;6.07;;
55316;SDS011;41178;48.956;8.130;2022-11-15T10:56:55;7.40;;;6.03;;
55316;SDS011;41178;48.956;8.130;2022-11-15T11:06:13;7.10;;;5.47;;
55316;SDS011;41178;48.956;8.130;2022-11-15T11:11:17;7.73;;;6.20;;
55316;SDS011;41178;48.956;8.130;2022-11-15T11:27:30;6.00;;;5.33;;
55316;SDS011;41178;48.956;8.130;2022-11-15T11:38:24;13.40;;;7.97;;
55316;SDS011;41178;48.956;8.130;2022-11-15T11:48:57;7.97;;;5.87;;
55316;SDS011;41178;48.956;8.130;2022-11-15T11:54:11;8.40;;;5.43;;
55316;SDS011;41178;48.956;8.130;2022-11-15T12:04:30;8.60;;;6.90;;
55316;SDS011;41178;48.956;8.130;2022-11-15T12:09:39;7.73;;;5.83;;
55316;SDS011;41178;48.956;8.130;2022-11-15T12:14:46;8.27;;;5.47;;
55316;SDS011;41178;48.956;8.130;2022-11-15T12:20:14;9.77;;;5.60;;
55316;SDS011;41178;48.956;8.130;2022-11-15T12:30:44;7.90;;;5.50;;
55316;SDS011;41178;48.956;8.130;2022-11-15T12:35:57;6.17;;;5.43;;
55316;SDS011;41178;48.956;8.130;2022-11-15T12:56:44;6.13;;;5.27;;
55316;SDS011;41178;48.956;8.130;2022-11-15T13:06:48;6.90;;;4.37;;
55316;SDS011;41178;48.956;8.130;2022-11-15T13:11:51;8.67;;;4.60;;
55316;SDS011;41178;48.956;8.130;2022-11-15T13:17:00;7.43;;;4.00;;
55316;SDS011;41178;48.956;8.130;2022-11-15T13:22:10;6.13;;;3.80;;
55316;SDS011;41178;48.956;8.130;2022-11-15T13:27:30;5.23;;;4.07;;
55316;SDS011;41178;48.956;8.130;2022-11-15T13:32:32;4.30;;;3.87;;
55316;SDS011;41178;48.956;8.130;2022-11-15T13:37:34;5.63;;;4.50;;
55316;SDS011;41178;48.956;8.130;2022-11-15T13:42:36;6.93;;;4.23;;
55316;SDS011;41178;48.956;8.130;2022-11-15T13:47:50;6.33;;;5.73;;
55316;SDS011;41178;48.956;8.130;2022-11-15T13:52:53;4.40;;;3.90;;
55316;SDS011;41178;48.956;8.130;2022-11-15T13:58:00;6.60;;;3.73;;
55316;SDS011;41178;48.956;8.130;2022-11-15T14:08:23;6.07;;;5.13;;
55316;SDS011;41178;48.956;8.130;2022-11-15T14:13:29;3.90;;;3.47;;
55316;SDS011;41178;48.956;8.130;2022-11-15T14:18:43;5.23;;;4.67;;
55316;SDS011;41178;48.956;8.130;2022-11-15T14:23:45;11.10;;;5.30;;
55316;SDS011;41178;48.956;8.130;2022-11-15T14:28:47;9.97;;;5.00;;
55316;SDS011;41178;48.956;8.130;2022-11-15T14:33:48;7.17;;;5.00;;
55316;SDS011;41178;48.956;8.130;2022-11-15T14:38:50;9.67;;;5.13;;
55316;SDS011;41178;48.956;8.130;2022-11-15T14:43:52;8.73;;;5.07;;
55316;SDS011;41178;48.956;8.130;2022-11-15T14:48:54;7.50;;;4.80;;
55316;SDS011;41178;48.956;8.130;2022-11-15T14:53:56;12.13;;;4.80;;
55316;SDS011;41178;48.956;8.130;2022-11-15T14:58:57;5.80;;;3.90;;
55316;SDS011;41178;48.956;8.130;2022-11-15T15:03:59;7.07;;;4.83;;
55316;SDS011;41178;48.956;8.130;2022-11-15T15:09:01;8.83;;;7.07;;
55316;SDS011;41178;48.956;8.130;2022-11-15T15:14:03;8.30;;;5.13;;
55316;SDS011;41178;48.956;8.130;2022-11-15T15:19:05;8.97;;;7.23;;
55316;SDS011;41178;48.956;8.130;2022-11-15T15:24:08;9.50;;;5.10;;
55316;SDS011;41178;48.956;8.130;2022-11-15T15:29:15;9.03;;;6.07;;
55316;SDS011;41178;48.956;8.130;2022-11-15T15:34:16;5.37;;;4.40;;
55316;SDS011;41178;48.956;8.130;2022-11-15T15:39:18;5.73;;;4.83;;
55316;SDS011;41178;48.956;8.130;2022-11-15T15:44:19;7.23;;;4.67;;
55316;SDS011;41178;48.956;8.130;2022-11-15T15:49:21;12.00;;;8.20;;
55316;SDS011;41178;48.956;8.130;2022-11-15T15:54:23;9.43;;;6.57;;
55316;SDS011;41178;48.956;8.130;2022-11-15T15:59:24;10.03;;;7.47;;
55316;SDS011;41178;48.956;8.130;2022-11-15T16:04:26;10.30;;;7.37;;
55316;SDS011;41178;48.956;8.130;2022-11-15T16:09:29;9.27;;;6.57;;
55316;SDS011;41178;48.956;8.130;2022-11-15T16:15:09;9.40;;;6.53;;
55316;SDS011;41178;48.956;8.130;2022-11-15T16:20:29;8.00;;;5.53;;
55316;SDS011;41178;48.956;8.130;2022-11-15T16:30:47;7.10;;;4.60;;
55316;SDS011;41178;48.956;8.130;2022-11-15T16:35:56;9.30;;;6.40;;
55316;SDS011;41178;48.956;8.130;2022-11-15T16:40:58;6.43;;;5.10;;
55316;SDS011;41178;48.956;8.130;2022-11-15T16:46:02;6.77;;;4.87;;
55316;SDS011;41178;48.956;8.130;2022-11-15T16:51:14;5.97;;;4.47;;
55316;SDS011;41178;48.956;8.130;2022-11-15T17:01:31;11.00;;;7.67;;
55316;SDS011;41178;48.956;8.130;2022-11-15T17:06:35;24.10;;;15.67;;
55316;SDS011;41178;48.956;8.130;2022-11-15T17:11:37;16.40;;;12.70;;
55316;SDS011;41178;48.956;8.130;2022-11-15T17:16:43;6.67;;;5.67;;
55316;SDS011;41178;48.956;8.130;2022-11-15T17:21:46;12.87;;;9.47;;
55316;SDS011;41178;48.956;8.130;2022-11-15T17:26:49;7.27;;;6.37;;
55316;SDS011;41178;48.956;8.130;2022-11-15T17:31:51;8.33;;;7.10;;
55316;SDS011;41178;48.956;8.130;2022-11-15T17:37:05;9.53;;;7.37;;
55316;SDS011;41178;48.956;8.130;2022-11-15T17:42:13;8.33;;;7.20;;
55316;SDS011;41178;48.956;8.130;2022-11-15T17:48:01;9.83;;;6.50;;
55316;SDS011;41178;48.956;8.130;2022-11-15T17:59:07;11.47;;;8.40;;
55316;SDS011;41178;48.956;8.130;2022-11-15T18:04:34;12.13;;;8.63;;
55316;SDS011;41178;48.956;8.130;2022-11-15T18:10:48;11.23;;;8.07;;
55316;SDS011;41178;48.956;8.130;2022-11-15T18:16:21;10.00;;;8.57;;
55316;SDS011;41178;48.956;8.130;2022-11-15T18:21:52;10.30;;;8.37;;
55316;SDS011;41178;48.956;8.130;2022-11-15T18:27:34;10.60;;;7.67;;
55316;SDS011;41178;48.956;8.130;2022-11-15T18:33:00;8.97;;;7.23;;
55316;SDS011;41178;48.956;8.130;2022-11-15T18:44:42;10.80;;;8.63;;
55316;SDS011;41178;48.956;8.130;2022-11-15T18:50:08;10.07;;;8.33;;
55316;SDS011;41178;48.956;8.130;2022-11-15T18:55:34;12.37;;;8.90;;
55316;SDS011;41178;48.956;8.130;2022-11-15T19:01:09;9.47;;;7.90;;
55316;SDS011;41178;48.956;8.130;2022-11-15T19:06:58;11.07;;;8.53;;
55316;SDS011;41178;48.956;8.130;2022-11-15T19:12:03;10.57;;;8.17;;
55316;SDS011;41178;48.956;8.130;2022-11-15T19:17:05;17.40;;;12.77;;
55316;SDS011;41178;48.956;8.130;2022-11-15T19:22:07;11.90;;;10.37;;
55316;SDS011;41178;48.956;8.130;2022-11-15T19:27:08;15.50;;;12.47;;
55316;SDS011;41178;48.956;8.130;2022-11-15T19:32:10;14.93;;;11.73;;
55316;SDS011;41178;48.956;8.130;2022-11-15T19:37:11;10.90;;;8.63;;
55316;SDS011;41178;48.956;8.130;2022-11-15T19:42:13;11.67;;;9.23;;
55316;SDS011;41178;48.956;8.130;2022-11-15T19:47:15;10.80;;;9.47;;
55316;SDS011;41178;48.956;8.130;2022-11-15T19:52:16;12.63;;;9.37;;
55316;SDS011;41178;48.956;8.130;2022-11-15T19:57:20;25.70;;;16.33;;
55316;SDS011;41178;48.956;8.130;2022-11-15T20:02:22;16.07;;;11.00;;
55316;SDS011;41178;48.956;8.130;2022-11-15T20:07:23;18.03;;;13.17;;
55316;SDS011;41178;48.956;8.130;2022-11-15T20:12:25;32.93;;;22.37;;
55316;SDS011;41178;48.956;8.130;2022-11-15T20:17:27;18.73;;;14.67;;
55316;SDS011;41178;48.956;8.130;2022-11-15T20:22:28;20.20;;;16.47;;
55316;SDS011;41178;48.956;8.130;2022-11-15T20:27:30;19.03;;;14.07;;
55316;SDS011;41178;48.956;8.130;2022-11-15T20:32:32;22.17;;;17.37;;
55316;SDS011;41178;48.956;8.130;2022-11-15T20:37:34;21.33;;;15.03;;
55316;SDS011;41178;48.956;8.130;2022-11-15T20:42:35;16.00;;;13.63;;
55316;SDS011;41178;48.956;8.130;2022-11-15T20:47:37;24.37;;;19.43;;
55316;SDS011;41178;48.956;8.130;2022-11-15T20:52:38;20.33;;;17.50;;
55316;SDS011;41178;48.956;8.130;2022-11-15T20:57:40;19.83;;;15.87;;
55316;SDS011;41178;48.956;8.130;2022-11-15T21:02:42;22.27;;;17.57;;
55316;SDS011;41178;48.956;8.130;2022-11-15T21:07:44;22.03;;;17.37;;
55316;SDS011;41178;48.956;8.130;2022-11-15T21:12:45;32.23;;;24.10;;
55316;SDS011;41178;48.956;8.130;2022-11-15T21:17:47;47.17;;;33.37;;
55316;SDS011;41178;48.956;8.130;2022-11-15T21:22:49;27.53;;;21.40;;
55316;SDS011;41178;48.956;8.130;2022-11-15T21:27:51;50.17;;;38.97;;
55316;SDS011;41178;48.956;8.130;2022-11-15T21:32:53;49.80;;;36.97;;
55316;SDS011;41178;48.956;8.130;2022-11-15T21:37:54;36.83;;;26.17;;
55316;SDS011;41178;48.956;8.130;2022-11-15T21:42:57;23.70;;;20.20;;
55316;SDS011;41178;48.956;8.130;2022-11-15T21:47:59;15.83;;;13.23;;
55316;SDS011;41178;48.956;8.130;2022-11-15T21:53:00;14.03;;;11.10;;
55316;SDS011;41178;48.956;8.130;2022-11-15T21:58:02;11.97;;;10.20;;
55316;SDS011;41178;48.956;8.130;2022-11-15T22:03:04;17.53;;;13.40;;
55316;SDS011;41178;48.956;8.130;2022-11-15T22:08:05;21.87;;;17.93;;
55316;SDS011;41178;48.956;8.130;2022-11-15T22:13:07;15.77;;;12.13;;
55316;SDS011;41178;48.956;8.130;2022-11-15T22:18:09;13.47;;;10.73;;
55316;SDS011;41178;48.956;8.130;2022-11-15T22:23:10;11.70;;;8.67;;
55316;SDS011;41178;48.956;8.130;2022-11-15T22:28:12;12.43;;;8.90;;
55316;SDS011;41178;48.956;8.130;2022-11-15T22:33:17;12.20;;;8.93;;
55316;SDS011;41178;48.956;8.130;2022-11-15T22:38:20;11.03;;;8.80;;
55316;SDS011;41178;48.956;8.130;2022-11-15T22:43:23;13.17;;;9.60;;
55316;SDS011;41178;48.956;8.130;2022-11-15T22:48:27;11.37;;;8.83;;
55316;SDS011;41178;48.956;8.130;2022-11-15T22:53:35;11.90;;;8.53;;
55316;SDS011;41178;48.956;8.130;2022-11-15T22:58:38;11.63;;;8.30;;
55316;SDS011;41178;48.956;8.130;2022-11-15T23:03:40;11.93;;;8.20;;
55316;SDS011;41178;48.956;8.130;2022-11-15T23:08:42;12.00;;;8.60;;
55316;SDS011;41178;48.956;8.130;2022-11-15T23:13:43;10.57;;;8.97;;
55316;SDS011;41178;48.956;8.130;2022-11-15T23:18:45;13.83;;;9.60;;
55316;SDS011;41178;48.956;8.130;2022-11-15T23:23:47;14.03;;;9.50;;
55316;SDS011;41178;48.956;8.130;2022-11-15T23:28:48;11.27;;;8.77;;
55316;SDS011;41178;48.956;8.130;2022-11-15T23:33:50;13.20;;;9.23;;
55316;SDS011;41178;48.956;8.130;2022-11-15T23:38:58;12.13;;;9.47;;
55316;SDS011;41178;48.956;8.130;2022-11-15T23:43:59;12.97;;;9.60;;
55316;SDS011;41178;48.956;8.130;2022-11-15T23:49:01;11.40;;;9.20;;
55316;SDS011;41178;48.956;8.130;2022-11-15T23:54:04;14.80;;;9.47;;
55316;SDS011;41178;48.956;8.130;2022-11-15T23:59:06;13.20;;;9.87;;
